sensor_id;sensor_type;location;lat;lon;timestamp;pressure;altitude;pressure_sealevel;temperature;humidity
67373;BME280;54257;54.496;18.412;2023-06-26T00:01:34;99920.44;;;15.69;64.09
67373;BME280;54257;54.496;18.412;2023-06-26T00:04:01;99919.43;;;15.66;64.23
67373;BME280;54257;54.496;18.412;2023-06-26T00:06:28;99916.34;;;15.62;64.28
67373;BME280;54257;54.496;18.412;2023-06-26T00:08:56;99917.55;;;15.60;64.49
67373;BME280;54257;54.496;18.412;2023-06-26T00:11:25;99914.46;;;15.55;64.45
67373;BME280;54257;54.496;18.412;2023-06-26T00:13:54;99912.76;;;15.50;64.70
67373;BME280;54257;54.496;18.412;2023-06-26T00:16:21;99913.45;;;15.46;64.94
67373;BME280;54257;54.496;18.412;2023-06-26T00:18:48;99914.85;;;15.42;65.23
67373;BME280;54257;54.496;18.412;2023-06-26T00:21:15;99914.69;;;15.38;65.26
67373;BME280;54257;54.496;18.412;2023-06-26T00:23:42;99913.30;;;15.37;65.15
67373;BME280;54257;54.496;18.412;2023-06-26T00:26:09;99909.56;;;15.33;65.24
67373;BME280;54257;54.496;18.412;2023-06-26T00:28:38;99913.17;;;15.33;65.25
67373;BME280;54257;54.496;18.412;2023-06-26T00:31:05;99909.38;;;15.30;65.12
67373;BME280;54257;54.496;18.412;2023-06-26T00:33:32;99909.58;;;15.25;64.95
67373;BME280;54257;54.496;18.412;2023-06-26T00:35:59;99913.89;;;15.22;65.19
67373;BME280;54257;54.496;18.412;2023-06-26T00:38:26;99913.55;;;15.19;65.26
67373;BME280;54257;54.496;18.412;2023-06-26T00:40:54;99914.25;;;15.17;65.37
67373;BME280;54257;54.496;18.412;2023-06-26T00:43:21;99914.44;;;15.11;65.54
67373;BME280;54257;54.496;18.412;2023-06-26T00:45:48;99913.60;;;15.06;65.72
67373;BME280;54257;54.496;18.412;2023-06-26T00:48:15;99914.64;;;15.01;65.85
67373;BME280;54257;54.496;18.412;2023-06-26T00:50:42;99910.69;;;14.98;65.88
67373;BME280;54257;54.496;18.412;2023-06-26T00:53:11;99914.64;;;14.96;65.96
67373;BME280;54257;54.496;18.412;2023-06-26T00:55:38;99912.92;;;14.93;66.09
67373;BME280;54257;54.496;18.412;2023-06-26T00:58:05;99911.73;;;14.91;65.98
67373;BME280;54257;54.496;18.412;2023-06-26T01:00:33;99910.01;;;14.89;66.09
67373;BME280;54257;54.496;18.412;2023-06-26T01:03:00;99909.33;;;14.86;66.38
67373;BME280;54257;54.496;18.412;2023-06-26T01:05:29;99902.80;;;14.83;66.53
67373;BME280;54257;54.496;18.412;2023-06-26T01:07:57;99908.13;;;14.81;66.64
67373;BME280;54257;54.496;18.412;2023-06-26T01:10:25;99903.15;;;14.78;66.73
67373;BME280;54257;54.496;18.412;2023-06-26T01:12:54;99906.08;;;14.77;66.82
67373;BME280;54257;54.496;18.412;2023-06-26T01:15:21;99902.13;;;14.76;66.79
67373;BME280;54257;54.496;18.412;2023-06-26T01:17:49;99904.71;;;14.76;66.85
67373;BME280;54257;54.496;18.412;2023-06-26T01:20:18;99901.27;;;14.75;67.02
67373;BME280;54257;54.496;18.412;2023-06-26T01:28:39;99892.85;;;14.65;66.84
67373;BME280;54257;54.496;18.412;2023-06-26T01:31:07;99885.30;;;14.60;66.93
67373;BME280;54257;54.496;18.412;2023-06-26T01:33:36;99883.75;;;14.58;66.64
67373;BME280;54257;54.496;18.412;2023-06-26T01:36:04;99883.75;;;14.53;66.42
67373;BME280;54257;54.496;18.412;2023-06-26T01:38:31;99881.53;;;14.51;66.33
67373;BME280;54257;54.496;18.412;2023-06-26T01:40:58;99879.63;;;14.47;66.42
67373;BME280;54257;54.496;18.412;2023-06-26T01:52:06;99871.70;;;14.31;66.70
67373;BME280;54257;54.496;18.412;2023-06-26T01:54:43;99871.88;;;14.29;66.92
67373;BME280;54257;54.496;18.412;2023-06-26T01:57:14;99875.30;;;14.25;67.17
67373;BME280;54257;54.496;18.412;2023-06-26T01:59:42;99872.05;;;14.25;67.41
67373;BME280;54257;54.496;18.412;2023-06-26T02:02:09;99871.00;;;14.24;67.62
67373;BME280;54257;54.496;18.412;2023-06-26T02:04:37;99869.29;;;14.24;67.80
67373;BME280;54257;54.496;18.412;2023-06-26T02:07:04;99865.51;;;14.23;67.76
67373;BME280;54257;54.496;18.412;2023-06-26T02:09:31;99865.34;;;14.22;67.91
67373;BME280;54257;54.496;18.412;2023-06-26T02:11:58;99865.52;;;14.21;67.97
67373;BME280;54257;54.496;18.412;2023-06-26T02:14:25;99867.58;;;14.20;67.92
67373;BME280;54257;54.496;18.412;2023-06-26T02:16:52;99865.86;;;14.20;68.07
67373;BME280;54257;54.496;18.412;2023-06-26T02:19:19;99865.67;;;14.18;68.24
67373;BME280;54257;54.496;18.412;2023-06-26T02:21:51;99868.08;;;14.15;68.38
67373;BME280;54257;54.496;18.412;2023-06-26T02:24:18;99867.23;;;14.10;68.02
67373;BME280;54257;54.496;18.412;2023-06-26T02:26:45;99866.70;;;14.04;68.19
67373;BME280;54257;54.496;18.412;2023-06-26T02:29:12;99867.55;;;14.00;68.10
67373;BME280;54257;54.496;18.412;2023-06-26T02:31:39;99860.70;;;13.96;68.08
67373;BME280;54257;54.496;18.412;2023-06-26T02:34:06;99856.05;;;13.95;68.35
67373;BME280;54257;54.496;18.412;2023-06-26T02:36:33;99854.34;;;13.94;68.53
67373;BME280;54257;54.496;18.412;2023-06-26T02:39:00;99851.58;;;13.92;68.40
67373;BME280;54257;54.496;18.412;2023-06-26T02:41:27;99854.15;;;13.92;68.48
67373;BME280;54257;54.496;18.412;2023-06-26T02:43:54;99847.45;;;13.90;68.56
67373;BME280;54257;54.496;18.412;2023-06-26T02:46:21;99846.94;;;13.89;68.74
67373;BME280;54257;54.496;18.412;2023-06-26T02:48:48;99845.40;;;13.88;68.69
67373;BME280;54257;54.496;18.412;2023-06-26T02:51:15;99845.74;;;13.88;68.91
67373;BME280;54257;54.496;18.412;2023-06-26T02:53:42;99845.57;;;13.88;69.22
67373;BME280;54257;54.496;18.412;2023-06-26T02:56:09;99840.76;;;13.88;69.45
67373;BME280;54257;54.496;18.412;2023-06-26T02:58:36;99844.19;;;13.91;69.77
67373;BME280;54257;54.496;18.412;2023-06-26T03:01:02;99847.98;;;13.94;70.10
67373;BME280;54257;54.496;18.412;2023-06-26T03:03:30;99844.89;;;13.95;70.19
67373;BME280;54257;54.496;18.412;2023-06-26T03:05:57;99842.48;;;13.96;70.38
67373;BME280;54257;54.496;18.412;2023-06-26T03:08:24;99840.08;;;13.95;70.55
67373;BME280;54257;54.496;18.412;2023-06-26T03:10:51;99839.56;;;14.00;70.65
67373;BME280;54257;54.496;18.412;2023-06-26T03:13:18;99844.36;;;14.07;70.84
67373;BME280;54257;54.496;18.412;2023-06-26T03:15:46;99841.45;;;14.12;70.96
67373;BME280;54257;54.496;18.412;2023-06-26T03:18:13;99838.88;;;14.20;71.17
67373;BME280;54257;54.496;18.412;2023-06-26T03:20:40;99839.23;;;14.27;71.11
67373;BME280;54257;54.496;18.412;2023-06-26T03:23:07;99841.46;;;14.35;71.18
67373;BME280;54257;54.496;18.412;2023-06-26T03:25:34;99842.48;;;14.45;71.39
67373;BME280;54257;54.496;18.412;2023-06-26T03:28:01;99842.15;;;14.54;71.35
67373;BME280;54257;54.496;18.412;2023-06-26T03:30:28;99847.11;;;14.65;71.51
67373;BME280;54257;54.496;18.412;2023-06-26T03:32:55;99843.66;;;14.73;71.48
67373;BME280;54257;54.496;18.412;2023-06-26T03:35:22;99840.05;;;14.79;71.36
67373;BME280;54257;54.496;18.412;2023-06-26T03:37:50;99839.52;;;14.85;71.34
67373;BME280;54257;54.496;18.412;2023-06-26T03:40:17;99837.92;;;14.95;71.45
67373;BME280;54257;54.496;18.412;2023-06-26T03:42:44;99832.91;;;15.04;71.60
67373;BME280;54257;54.496;18.412;2023-06-26T03:45:11;99837.69;;;15.14;71.72
67373;BME280;54257;54.496;18.412;2023-06-26T03:47:39;99836.80;;;15.23;71.83
67373;BME280;54257;54.496;18.412;2023-06-26T03:50:07;99825.23;;;15.29;71.88
67373;BME280;54257;54.496;18.412;2023-06-26T03:52:35;99828.27;;;15.40;71.50
67373;BME280;54257;54.496;18.412;2023-06-26T03:55:10;99821.89;;;15.44;71.29
67373;BME280;54257;54.496;18.412;2023-06-26T03:57:37;99826.33;;;15.47;71.24
67373;BME280;54257;54.496;18.412;2023-06-26T04:00:05;99816.88;;;15.48;71.33
67373;BME280;54257;54.496;18.412;2023-06-26T04:02:35;99818.76;;;15.50;71.24
67373;BME280;54257;54.496;18.412;2023-06-26T04:05:08;99816.65;;;15.54;71.60
67373;BME280;54257;54.496;18.412;2023-06-26T04:07:38;99813.22;;;15.56;72.14
67373;BME280;54257;54.496;18.412;2023-06-26T04:10:06;99813.36;;;15.61;72.47
67373;BME280;54257;54.496;18.412;2023-06-26T04:12:41;99811.30;;;15.64;72.94
67373;BME280;54257;54.496;18.412;2023-06-26T04:15:10;99810.92;;;15.66;73.43
67373;BME280;54257;54.496;18.412;2023-06-26T04:17:37;99809.88;;;15.72;74.02
67373;BME280;54257;54.496;18.412;2023-06-26T04:20:05;99811.74;;;15.75;74.72
67373;BME280;54257;54.496;18.412;2023-06-26T04:22:36;99808.09;;;15.79;75.09
67373;BME280;54257;54.496;18.412;2023-06-26T04:25:05;99808.76;;;15.83;75.65
67373;BME280;54257;54.496;18.412;2023-06-26T04:27:35;99805.11;;;15.87;75.49
67373;BME280;54257;54.496;18.412;2023-06-26T04:30:03;99808.30;;;15.96;75.57
67373;BME280;54257;54.496;18.412;2023-06-26T04:32:30;99804.60;;;16.07;75.36
67373;BME280;54257;54.496;18.412;2023-06-26T04:34:57;99807.80;;;16.16;75.48
67373;BME280;54257;54.496;18.412;2023-06-26T04:37:25;99807.20;;;16.25;75.78
67373;BME280;54257;54.496;18.412;2023-06-26T04:39:53;99804.73;;;16.33;75.85
67373;BME280;54257;54.496;18.412;2023-06-26T04:42:20;99803.79;;;16.40;75.75
67373;BME280;54257;54.496;18.412;2023-06-26T04:44:48;99801.63;;;16.49;75.84
67373;BME280;54257;54.496;18.412;2023-06-26T04:47:15;99802.92;;;16.57;75.87
67373;BME280;54257;54.496;18.412;2023-06-26T04:49:43;99798.20;;;16.63;76.09
67373;BME280;54257;54.496;18.412;2023-06-26T04:52:13;99797.09;;;16.73;76.38
67373;BME280;54257;54.496;18.412;2023-06-26T04:54:41;99798.21;;;16.81;75.72
67373;BME280;54257;54.496;18.412;2023-06-26T04:57:08;99800.70;;;16.90;75.48
67373;BME280;54257;54.496;18.412;2023-06-26T04:59:36;99800.07;;;16.98;74.98
67373;BME280;54257;54.496;18.412;2023-06-26T05:02:03;99799.95;;;17.08;74.75
67373;BME280;54257;54.496;18.412;2023-06-26T05:04:31;99799.81;;;17.20;74.25
67373;BME280;54257;54.496;18.412;2023-06-26T05:06:59;99795.02;;;17.29;73.91
67373;BME280;54257;54.496;18.412;2023-06-26T05:09:29;99794.33;;;17.42;73.75
67373;BME280;54257;54.496;18.412;2023-06-26T05:12:10;99796.72;;;17.55;73.07
67373;BME280;54257;54.496;18.412;2023-06-26T05:14:47;99793.73;;;17.74;72.28
67373;BME280;54257;54.496;18.412;2023-06-26T05:17:14;99787.79;;;17.88;71.59
67373;BME280;54257;54.496;18.412;2023-06-26T05:19:42;99792.84;;;18.07;71.27
67373;BME280;54257;54.496;18.412;2023-06-26T05:22:12;99786.75;;;18.30;71.24
67373;BME280;54257;54.496;18.412;2023-06-26T05:24:40;99789.89;;;18.57;70.54
67373;BME280;54257;54.496;18.412;2023-06-26T05:27:11;99786.77;;;18.84;70.04
67373;BME280;54257;54.496;18.412;2023-06-26T05:29:46;99779.27;;;19.12;68.74
67373;BME280;54257;54.496;18.412;2023-06-26T05:32:15;99779.63;;;19.36;67.11
67373;BME280;54257;54.496;18.412;2023-06-26T05:34:48;99777.59;;;19.66;65.95
67373;BME280;54257;54.496;18.412;2023-06-26T05:37:21;99779.72;;;19.99;65.22
67373;BME280;54257;54.496;18.412;2023-06-26T05:39:52;99777.11;;;20.34;63.90
67373;BME280;54257;54.496;18.412;2023-06-26T05:42:19;99774.02;;;20.65;62.56
67373;BME280;54257;54.496;18.412;2023-06-26T05:44:47;99772.73;;;20.99;61.00
67373;BME280;54257;54.496;18.412;2023-06-26T05:47:14;99774.27;;;21.29;59.29
67373;BME280;54257;54.496;18.412;2023-06-26T05:49:41;99770.71;;;21.60;58.93
67373;BME280;54257;54.496;18.412;2023-06-26T05:52:10;99776.24;;;21.93;57.18
67373;BME280;54257;54.496;18.412;2023-06-26T05:54:38;99778.11;;;22.27;56.46
67373;BME280;54257;54.496;18.412;2023-06-26T05:57:10;99776.96;;;22.65;54.65
67373;BME280;54257;54.496;18.412;2023-06-26T05:59:39;99775.44;;;22.97;53.42
67373;BME280;54257;54.496;18.412;2023-06-26T06:02:08;99771.75;;;23.30;52.47
67373;BME280;54257;54.496;18.412;2023-06-26T06:04:35;99771.73;;;23.62;52.05
67373;BME280;54257;54.496;18.412;2023-06-26T06:07:04;99770.75;;;23.95;49.96
67373;BME280;54257;54.496;18.412;2023-06-26T06:09:36;99770.93;;;24.20;49.40
67373;BME280;54257;54.496;18.412;2023-06-26T06:12:09;99776.40;;;24.40;47.36
67373;BME280;54257;54.496;18.412;2023-06-26T06:14:36;99772.64;;;24.58;47.77
67373;BME280;54257;54.496;18.412;2023-06-26T06:17:03;99772.32;;;24.84;46.53
67373;BME280;54257;54.496;18.412;2023-06-26T06:19:33;99769.39;;;25.07;46.49
67373;BME280;54257;54.496;18.412;2023-06-26T06:22:00;99770.36;;;25.31;46.08
67373;BME280;54257;54.496;18.412;2023-06-26T06:24:27;99767.27;;;25.59;45.19
67373;BME280;54257;54.496;18.412;2023-06-26T06:26:56;99769.74;;;25.81;44.37
67373;BME280;54257;54.496;18.412;2023-06-26T06:29:33;99764.58;;;26.07;44.33
67373;BME280;54257;54.496;18.412;2023-06-26T06:32:07;99767.11;;;26.37;43.20
67373;BME280;54257;54.496;18.412;2023-06-26T06:35:06;99764.82;;;26.54;42.64
67373;BME280;54257;54.496;18.412;2023-06-26T06:38:04;99765.48;;;26.74;41.73
67373;BME280;54257;54.496;18.412;2023-06-26T06:40:46;99758.00;;;27.03;41.14
67373;BME280;54257;54.496;18.412;2023-06-26T06:43:44;99754.60;;;27.33;40.25
67373;BME280;54257;54.496;18.412;2023-06-26T06:46:44;99752.61;;;27.65;39.95
67373;BME280;54257;54.496;18.412;2023-06-26T06:49:26;99751.14;;;27.94;39.65
67373;BME280;54257;54.496;18.412;2023-06-26T06:51:55;99747.64;;;28.12;39.30
67373;BME280;54257;54.496;18.412;2023-06-26T06:54:25;99748.04;;;28.35;38.87
67373;BME280;54257;54.496;18.412;2023-06-26T06:56:53;99750.23;;;28.54;37.99
67373;BME280;54257;54.496;18.412;2023-06-26T06:59:20;99742.45;;;28.62;37.34
67373;BME280;54257;54.496;18.412;2023-06-26T07:01:47;99748.63;;;28.63;36.69
67373;BME280;54257;54.496;18.412;2023-06-26T07:04:14;99740.02;;;28.71;37.24
67373;BME280;54257;54.496;18.412;2023-06-26T07:06:41;99741.01;;;28.92;36.54
67373;BME280;54257;54.496;18.412;2023-06-26T07:09:08;99744.54;;;29.08;35.86
67373;BME280;54257;54.496;18.412;2023-06-26T07:11:35;99745.95;;;29.36;35.34
67373;BME280;54257;54.496;18.412;2023-06-26T07:14:02;99748.81;;;29.65;33.68
67373;BME280;54257;54.496;18.412;2023-06-26T07:16:29;99747.57;;;29.87;31.73
67373;BME280;54257;54.496;18.412;2023-06-26T07:18:56;99743.92;;;29.99;30.98
67373;BME280;54257;54.496;18.412;2023-06-26T07:21:25;99744.29;;;30.12;31.36
67373;BME280;54257;54.496;18.412;2023-06-26T07:23:52;99741.38;;;30.34;32.06
67373;BME280;54257;54.496;18.412;2023-06-26T07:26:18;99741.06;;;30.54;32.88
67373;BME280;54257;54.496;18.412;2023-06-26T07:28:45;99740.83;;;30.80;31.49
67373;BME280;54257;54.496;18.412;2023-06-26T07:31:12;99735.26;;;31.06;31.25
67373;BME280;54257;54.496;18.412;2023-06-26T07:33:39;99732.25;;;31.33;31.30
67373;BME280;54257;54.496;18.412;2023-06-26T07:36:06;99731.53;;;31.55;30.52
67373;BME280;54257;54.496;18.412;2023-06-26T07:38:33;99729.47;;;31.76;30.32
67373;BME280;54257;54.496;18.412;2023-06-26T07:41:00;99726.33;;;31.85;30.49
67373;BME280;54257;54.496;18.412;2023-06-26T07:43:27;99728.33;;;31.91;31.03
67373;BME280;54257;54.496;18.412;2023-06-26T07:45:54;99729.09;;;32.06;31.42
67373;BME280;54257;54.496;18.412;2023-06-26T07:48:21;99723.88;;;32.26;30.77
67373;BME280;54257;54.496;18.412;2023-06-26T07:50:47;99723.69;;;32.49;30.24
67373;BME280;54257;54.496;18.412;2023-06-26T07:53:14;99722.96;;;32.67;29.49
67373;BME280;54257;54.496;18.412;2023-06-26T07:55:41;99722.19;;;32.84;28.52
67373;BME280;54257;54.496;18.412;2023-06-26T07:58:08;99723.36;;;33.00;28.33
67373;BME280;54257;54.496;18.412;2023-06-26T08:00:35;99720.00;;;33.13;27.63
67373;BME280;54257;54.496;18.412;2023-06-26T08:03:02;99718.09;;;33.24;27.81
67373;BME280;54257;54.496;18.412;2023-06-26T08:05:29;99715.73;;;33.00;27.80
67373;BME280;54257;54.496;18.412;2023-06-26T08:07:56;99715.83;;;33.02;28.33
67373;BME280;54257;54.496;18.412;2023-06-26T08:10:23;99711.70;;;33.06;28.23
67373;BME280;54257;54.496;18.412;2023-06-26T08:12:50;99712.09;;;33.19;28.72
67373;BME280;54257;54.496;18.412;2023-06-26T08:15:18;99710.79;;;33.44;28.50
67373;BME280;54257;54.496;18.412;2023-06-26T08:17:45;99712.05;;;33.71;28.25
67373;BME280;54257;54.496;18.412;2023-06-26T08:20:12;99710.05;;;33.95;27.86
67373;BME280;54257;54.496;18.412;2023-06-26T08:22:39;99708.65;;;34.12;27.53
67373;BME280;54257;54.496;18.412;2023-06-26T08:25:07;99706.64;;;34.29;27.13
67373;BME280;54257;54.496;18.412;2023-06-26T08:27:33;99708.89;;;34.37;26.36
67373;BME280;54257;54.496;18.412;2023-06-26T08:30:00;99704.34;;;34.39;26.10
67373;BME280;54257;54.496;18.412;2023-06-26T08:32:32;99709.12;;;34.43;26.14
67373;BME280;54257;54.496;18.412;2023-06-26T08:34:59;99705.75;;;34.47;25.57
67373;BME280;54257;54.496;18.412;2023-06-26T08:37:32;99707.35;;;34.41;25.54
67373;BME280;54257;54.496;18.412;2023-06-26T08:40:06;99706.71;;;34.50;25.76
67373;BME280;54257;54.496;18.412;2023-06-26T08:42:33;99705.22;;;34.62;25.66
67373;BME280;54257;54.496;18.412;2023-06-26T08:45:01;99705.38;;;34.70;25.81
67373;BME280;54257;54.496;18.412;2023-06-26T08:47:30;99700.20;;;34.90;25.69
67373;BME280;54257;54.496;18.412;2023-06-26T08:50:11;99698.98;;;35.14;25.46
67373;BME280;54257;54.496;18.412;2023-06-26T08:55:36;99697.88;;;35.36;24.69
67373;BME280;54257;54.496;18.412;2023-06-26T09:01:13;99696.48;;;35.51;23.89
67373;BME280;54257;54.496;18.412;2023-06-26T09:03:40;99693.45;;;35.48;23.25
67373;BME280;54257;54.496;18.412;2023-06-26T09:06:08;99690.55;;;35.22;22.58
67373;BME280;54257;54.496;18.412;2023-06-26T09:08:35;99693.71;;;34.63;22.37
67373;BME280;54257;54.496;18.412;2023-06-26T09:11:01;99694.73;;;34.08;23.09
67373;BME280;54257;54.496;18.412;2023-06-26T09:13:30;99692.63;;;33.72;23.28
67373;BME280;54257;54.496;18.412;2023-06-26T09:15:57;99687.56;;;33.29;26.78
67373;BME280;54257;54.496;18.412;2023-06-26T09:18:24;99686.92;;;33.21;28.27
67373;BME280;54257;54.496;18.412;2023-06-26T09:20:51;99686.64;;;33.01;28.01
67373;BME280;54257;54.496;18.412;2023-06-26T09:23:18;99687.86;;;32.88;28.68
67373;BME280;54257;54.496;18.412;2023-06-26T09:25:47;99687.20;;;32.85;29.45
67373;BME280;54257;54.496;18.412;2023-06-26T09:28:14;99688.15;;;32.87;29.19
67373;BME280;54257;54.496;18.412;2023-06-26T09:30:41;99684.96;;;33.08;28.77
67373;BME280;54257;54.496;18.412;2023-06-26T09:33:19;99682.43;;;33.05;28.20
67373;BME280;54257;54.496;18.412;2023-06-26T09:35:47;99684.52;;;33.03;28.61
67373;BME280;54257;54.496;18.412;2023-06-26T09:38:14;99680.09;;;33.03;29.09
67373;BME280;54257;54.496;18.412;2023-06-26T09:40:47;99678.87;;;33.16;29.05
67373;BME280;54257;54.496;18.412;2023-06-26T09:43:14;99676.85;;;33.21;28.97
67373;BME280;54257;54.496;18.412;2023-06-26T09:45:41;99676.17;;;33.27;28.83
67373;BME280;54257;54.496;18.412;2023-06-26T09:48:08;99675.70;;;33.33;28.55
67373;BME280;54257;54.496;18.412;2023-06-26T09:50:35;99673.44;;;32.91;28.09
67373;BME280;54257;54.496;18.412;2023-06-26T09:53:09;99674.91;;;32.33;28.40
67373;BME280;54257;54.496;18.412;2023-06-26T09:55:37;99678.00;;;32.08;29.46
67373;BME280;54257;54.496;18.412;2023-06-26T09:58:05;99676.99;;;32.26;29.51
67373;BME280;54257;54.496;18.412;2023-06-26T10:00:33;99675.73;;;32.26;29.05
67373;BME280;54257;54.496;18.412;2023-06-26T10:03:00;99677.86;;;32.36;29.21
67373;BME280;54257;54.496;18.412;2023-06-26T10:05:29;99666.77;;;32.46;28.78
67373;BME280;54257;54.496;18.412;2023-06-26T10:07:58;99669.19;;;32.69;29.12
67373;BME280;54257;54.496;18.412;2023-06-26T10:10:26;99664.20;;;33.05;29.09
67373;BME280;54257;54.496;18.412;2023-06-26T10:12:59;99665.92;;;33.27;28.74
67373;BME280;54257;54.496;18.412;2023-06-26T10:15:31;99661.92;;;33.60;28.18
67373;BME280;54257;54.496;18.412;2023-06-26T10:17:58;99661.16;;;33.88;27.63
67373;BME280;54257;54.496;18.412;2023-06-26T10:20:25;99659.06;;;33.90;26.69
67373;BME280;54257;54.496;18.412;2023-06-26T10:22:55;99661.50;;;33.57;26.52
67373;BME280;54257;54.496;18.412;2023-06-26T10:25:23;99654.98;;;33.07;26.67
67373;BME280;54257;54.496;18.412;2023-06-26T10:27:55;99652.40;;;32.93;27.60
67373;BME280;54257;54.496;18.412;2023-06-26T10:30:29;99655.73;;;33.07;27.73
67373;BME280;54257;54.496;18.412;2023-06-26T10:32:57;99653.18;;;33.14;27.85
67373;BME280;54257;54.496;18.412;2023-06-26T10:35:32;99654.24;;;33.07;27.30
67373;BME280;54257;54.496;18.412;2023-06-26T10:38:01;99654.52;;;32.98;27.18
67373;BME280;54257;54.496;18.412;2023-06-26T10:40:46;99648.77;;;32.59;27.82
67373;BME280;54257;54.496;18.412;2023-06-26T10:43:20;99645.94;;;32.74;28.22
67373;BME280;54257;54.496;18.412;2023-06-26T10:45:55;99646.31;;;32.96;28.24
67373;BME280;54257;54.496;18.412;2023-06-26T10:48:29;99645.93;;;33.01;27.09
67373;BME280;54257;54.496;18.412;2023-06-26T10:50:59;99642.45;;;32.61;27.27
67373;BME280;54257;54.496;18.412;2023-06-26T10:53:41;99634.23;;;32.44;28.24
67373;BME280;54257;54.496;18.412;2023-06-26T10:59:43;99630.96;;;32.71;27.79
67373;BME280;54257;54.496;18.412;2023-06-26T11:02:12;99625.98;;;32.67;27.24
67373;BME280;54257;54.496;18.412;2023-06-26T11:04:56;99625.80;;;32.50;27.57
67373;BME280;54257;54.496;18.412;2023-06-26T11:07:30;99624.09;;;32.71;28.29
67373;BME280;54257;54.496;18.412;2023-06-26T11:12:43;99624.94;;;33.19;27.14
67373;BME280;54257;54.496;18.412;2023-06-26T11:15:16;99625.40;;;33.29;26.98
67373;BME280;54257;54.496;18.412;2023-06-26T11:17:44;99623.59;;;33.35;27.16
67373;BME280;54257;54.496;18.412;2023-06-26T11:20:13;99617.95;;;33.46;27.38
67373;BME280;54257;54.496;18.412;2023-06-26T11:22:41;99611.94;;;33.62;27.21
67373;BME280;54257;54.496;18.412;2023-06-26T11:25:11;99608.30;;;33.49;27.49
67373;BME280;54257;54.496;18.412;2023-06-26T11:27:42;99604.81;;;33.61;27.70
67373;BME280;54257;54.496;18.412;2023-06-26T11:30:22;99607.96;;;33.36;27.69
67373;BME280;54257;54.496;18.412;2023-06-26T11:33:11;99607.95;;;33.43;28.33
67373;BME280;54257;54.496;18.412;2023-06-26T11:35:43;99605.52;;;33.71;28.29
67373;BME280;54257;54.496;18.412;2023-06-26T11:38:13;99601.29;;;33.88;28.03
67373;BME280;54257;54.496;18.412;2023-06-26T11:40:43;99599.71;;;33.90;27.86
67373;BME280;54257;54.496;18.412;2023-06-26T11:43:11;99602.36;;;33.71;28.11
67373;BME280;54257;54.496;18.412;2023-06-26T11:45:49;99596.79;;;33.84;28.15
67373;BME280;54257;54.496;18.412;2023-06-26T11:48:27;99597.45;;;33.91;27.81
67373;BME280;54257;54.496;18.412;2023-06-26T11:51:09;99599.67;;;33.71;28.22
67373;BME280;54257;54.496;18.412;2023-06-26T11:53:44;99601.59;;;33.47;28.19
67373;BME280;54257;54.496;18.412;2023-06-26T11:56:19;99600.98;;;33.37;29.18
67373;BME280;54257;54.496;18.412;2023-06-26T11:59:09;99604.99;;;33.23;28.61
67373;BME280;54257;54.496;18.412;2023-06-26T12:01:41;99600.33;;;32.65;28.76
67373;BME280;54257;54.496;18.412;2023-06-26T12:04:19;99591.16;;;32.47;29.63
67373;BME280;54257;54.496;18.412;2023-06-26T12:06:52;99585.98;;;32.48;30.57
67373;BME280;54257;54.496;18.412;2023-06-26T12:09:26;99587.17;;;32.85;30.44
67373;BME280;54257;54.496;18.412;2023-06-26T12:12:01;99586.23;;;32.90;29.23
67373;BME280;54257;54.496;18.412;2023-06-26T12:14:31;99585.20;;;32.75;29.22
67373;BME280;54257;54.496;18.412;2023-06-26T12:17:11;99583.31;;;32.70;29.58
67373;BME280;54257;54.496;18.412;2023-06-26T12:19:45;99583.92;;;32.62;29.37
67373;BME280;54257;54.496;18.412;2023-06-26T12:22:33;99584.09;;;32.45;29.32
67373;BME280;54257;54.496;18.412;2023-06-26T12:25:01;99576.48;;;32.49;29.52
67373;BME280;54257;54.496;18.412;2023-06-26T12:27:28;99575.55;;;32.39;29.39
67373;BME280;54257;54.496;18.412;2023-06-26T12:29:56;99573.42;;;32.18;29.29
67373;BME280;54257;54.496;18.412;2023-06-26T12:32:29;99571.65;;;32.05;29.61
67373;BME280;54257;54.496;18.412;2023-06-26T12:35:00;99571.09;;;32.19;29.68
67373;BME280;54257;54.496;18.412;2023-06-26T12:37:27;99570.34;;;32.55;29.71
67373;BME280;54257;54.496;18.412;2023-06-26T12:39:56;99568.23;;;32.88;29.02
67373;BME280;54257;54.496;18.412;2023-06-26T12:42:28;99571.53;;;32.82;27.81
67373;BME280;54257;54.496;18.412;2023-06-26T12:44:55;99561.69;;;32.53;28.46
67373;BME280;54257;54.496;18.412;2023-06-26T12:47:27;99560.35;;;32.45;28.33
67373;BME280;54257;54.496;18.412;2023-06-26T12:49:55;99554.48;;;32.26;27.96
67373;BME280;54257;54.496;18.412;2023-06-26T12:52:23;99554.27;;;32.33;28.74
67373;BME280;54257;54.496;18.412;2023-06-26T12:54:54;99549.01;;;32.48;28.62
67373;BME280;54257;54.496;18.412;2023-06-26T12:57:22;99544.44;;;32.52;28.43
67373;BME280;54257;54.496;18.412;2023-06-26T12:59:49;99542.29;;;32.65;28.06
67373;BME280;54257;54.496;18.412;2023-06-26T13:02:17;99542.52;;;32.62;27.57
67373;BME280;54257;54.496;18.412;2023-06-26T13:04:44;99539.77;;;32.57;27.69
67373;BME280;54257;54.496;18.412;2023-06-26T13:07:12;99535.39;;;32.76;27.59
67373;BME280;54257;54.496;18.412;2023-06-26T13:09:38;99536.89;;;32.81;27.10
67373;BME280;54257;54.496;18.412;2023-06-26T13:12:07;99531.28;;;32.76;26.97
67373;BME280;54257;54.496;18.412;2023-06-26T13:14:34;99527.67;;;32.51;26.69
67373;BME280;54257;54.496;18.412;2023-06-26T13:17:01;99525.71;;;32.19;27.52
67373;BME280;54257;54.496;18.412;2023-06-26T13:19:28;99525.56;;;32.20;27.74
67373;BME280;54257;54.496;18.412;2023-06-26T13:21:55;99525.96;;;32.24;27.73
67373;BME280;54257;54.496;18.412;2023-06-26T13:24:22;99523.11;;;32.22;27.30
67373;BME280;54257;54.496;18.412;2023-06-26T13:26:49;99527.41;;;31.51;27.35
67373;BME280;54257;54.496;18.412;2023-06-26T13:29:15;99519.00;;;30.93;28.74